Time;durP1;ratioP1;P1;durP2;ratioP2;P2;SDS_P1;SDS_P2;PMS_P1;PMS_P2;Temp;Humidity;BMP_temperature;BMP_pressure;BME280_temperature;BME280_humidity;BME280_pressure;Samples;Min_cycle;Max_cycle;Signal;HPM_P1;HPM_P2
2022/03/13 00:00:15;;;;;;;;;;;;;;;10.92;89.76;98925.59;5061583;28;19970;-88
2022/03/13 00:02:41;;;;;;;;;;;;;;;10.98;90.28;98931.38;5054555;28;19916;-87
2022/03/13 00:05:06;;;;;;;;;;;;;;;10.98;87.93;98921.09;5036651;28;20020;-87
2022/03/13 00:07:34;;;;;;;;;;;;;;;11.03;84.27;98923.50;5069982;28;19963;-88
2022/03/13 00:09:59;;;;;;;;;;;;;;;11.13;86.74;98924.88;5050012;28;19920;-87
2022/03/13 00:12:29;;;;;;;;;;;;;;;11.09;88.44;98923.28;5038306;28;19931;-87
2022/03/13 00:14:59;;;;;;;;;;;;;;;11.10;86.82;98922.38;5069612;28;19919;-87
2022/03/13 00:17:27;;;;;;;;;;;;;;;11.23;87.58;98923.63;5052444;28;19949;-87
2022/03/13 00:19:53;;;;;;;;;;;;;;;11.21;86.82;98919.44;5054069;28;19913;-87
2022/03/13 00:22:18;;;;;;;;;;;;;;;11.47;83.74;98919.34;5053535;28;19920;-87
2022/03/13 00:24:43;;;;;;;;;;;;;;;11.04;83.58;98930.34;5055161;28;19920;-86
2022/03/13 00:27:09;;;;;;;;;;;;;;;11.36;78.67;98925.75;5068342;28;19919;-87
2022/03/13 00:29:36;;;;;;;;;;;;;;;10.83;80.58;98932.78;5072944;28;20297;-88
2022/03/13 00:32:03;;;;;;;;;;;;;;;10.73;83.49;98946.84;5071461;28;20007;-88
2022/03/13 00:34:28;;;;;;;;;;;;;;;11.18;84.46;98943.59;5067988;28;19920;-86
2022/03/13 00:40:00;;;;;;;;;;;;;;;9.57;97.19;98956.41;5079849;28;19927;-88
2022/03/13 00:42:25;;;;;;;;;;;;;;;9.57;96.60;98948.69;5053232;28;20011;-87
2022/03/13 00:44:51;;;;;;;;;;;;;;;9.53;96.82;98953.06;5054556;28;20388;-86
2022/03/13 00:47:18;;;;;;;;;;;;;;;9.63;95.81;98949.38;5068095;28;19925;-87
2022/03/13 00:49:43;;;;;;;;;;;;;;;9.85;92.34;98946.16;5069025;28;19928;-87
2022/03/13 00:52:09;;;;;;;;;;;;;;;10.64;87.82;98942.00;5039939;28;19923;-88
2022/03/13 00:54:34;;;;;;;;;;;;;;;10.26;87.11;98941.47;5071869;28;19977;-88
2022/03/13 00:57:00;;;;;;;;;;;;;;;11.17;84.03;98936.72;5057225;28;19918;-89
2022/03/13 00:59:25;;;;;;;;;;;;;;;11.77;80.76;98928.53;5093000;28;19961;-90
2022/03/13 01:01:50;;;;;;;;;;;;;;;11.83;77.76;98925.72;5075523;28;19935;-88
2022/03/13 01:04:16;;;;;;;;;;;;;;;12.06;75.49;98927.44;5055218;28;19927;-87
2022/03/13 01:06:43;;;;;;;;;;;;;;;11.88;74.47;98929.00;5066029;28;19920;-85
2022/03/13 01:09:08;;;;;;;;;;;;;;;11.88;72.44;98926.41;5067892;28;20235;-87
2022/03/13 01:11:33;;;;;;;;;;;;;;;11.93;72.24;98921.94;5050903;28;19964;-87
2022/03/13 01:13:58;;;;;;;;;;;;;;;11.57;76.62;98924.97;5037708;28;19938;-87
2022/03/13 01:16:28;;;;;;;;;;;;;;;11.85;74.50;98923.94;5050170;28;19916;-89
2022/03/13 01:18:55;;;;;;;;;;;;;;;11.90;72.39;98917.72;5033320;28;19924;-86
2022/03/13 01:21:21;;;;;;;;;;;;;;;11.92;74.32;98915.91;5064415;28;19927;-86
2022/03/13 01:23:55;;;;;;;;;;;;;;;10.59;83.53;98923.28;5038953;28;19920;-86
2022/03/13 01:26:24;;;;;;;;;;;;;;;11.02;79.73;98922.66;5064540;28;19920;-86
2022/03/13 01:28:50;;;;;;;;;;;;;;;10.54;84.57;98930.34;5070672;28;19954;-88
2022/03/13 01:31:16;;;;;;;;;;;;;;;10.96;82.60;98922.03;5050118;28;19924;-87
2022/03/13 01:33:41;;;;;;;;;;;;;;;11.28;76.92;98914.00;5050996;28;19915;-87
2022/03/13 01:36:06;;;;;;;;;;;;;;;11.50;74.67;98908.06;5051421;28;19939;-87
2022/03/13 01:38:32;;;;;;;;;;;;;;;11.42;72.27;98908.31;5048338;28;19920;-84
2022/03/13 01:40:58;;;;;;;;;;;;;;;11.30;70.91;98917.34;5048306;28;20008;-87
2022/03/13 01:43:25;;;;;;;;;;;;;;;11.55;68.65;98903.56;5052637;28;20011;-86
2022/03/13 01:45:51;;;;;;;;;;;;;;;10.18;78.05;98910.00;5035620;28;20007;-85
2022/03/13 01:48:16;;;;;;;;;;;;;;;10.45;76.30;98911.72;5079123;28;20336;-86
2022/03/13 01:50:41;;;;;;;;;;;;;;;11.08;73.83;98896.69;5050308;28;19969;-87
2022/03/13 01:53:07;;;;;;;;;;;;;;;10.64;71.08;98901.63;5067018;28;19920;-87
2022/03/13 01:55:32;;;;;;;;;;;;;;;10.81;73.47;98900.19;5045536;28;20938;-84
2022/03/13 01:57:57;;;;;;;;;;;;;;;10.48;71.41;98900.47;5047389;28;19936;-90
2022/03/13 02:00:23;;;;;;;;;;;;;;;10.63;71.24;98891.41;5046453;28;19920;-85
2022/03/13 02:02:48;;;;;;;;;;;;;;;10.63;65.91;98888.81;5065240;28;19920;-85
2022/03/13 02:05:19;;;;;;;;;;;;;;;10.71;64.73;98880.81;5046277;28;19942;-85
2022/03/13 02:07:45;;;;;;;;;;;;;;;9.95;64.84;98875.53;5033801;28;19957;-86
2022/03/13 02:10:11;;;;;;;;;;;;;;;10.60;64.90;98874.28;5038647;28;19921;-85
2022/03/13 02:12:36;;;;;;;;;;;;;;;9.56;63.42;98868.16;5036915;28;19920;-84
2022/03/13 02:15:02;;;;;;;;;;;;;;;9.72;65.89;98878.00;5068497;28;19927;-89
2022/03/13 02:17:34;;;;;;;;;;;;;;;9.83;70.03;98871.63;5048403;28;19913;-86
2022/03/13 02:19:59;;;;;;;;;;;;;;;9.14;73.83;98883.09;5048483;28;19917;-84
2022/03/13 02:22:24;;;;;;;;;;;;;;;9.20;69.79;98878.63;5048075;28;19912;-87
2022/03/13 02:24:51;;;;;;;;;;;;;;;9.24;72.35;98875.97;5050451;28;19977;-86
2022/03/13 02:27:19;;;;;;;;;;;;;;;9.09;71.65;98877.25;5034747;28;19920;-86
2022/03/13 02:29:44;;;;;;;;;;;;;;;9.40;66.68;98865.22;5082352;28;19948;-86
2022/03/13 02:32:09;;;;;;;;;;;;;;;9.89;63.47;98865.44;5062879;28;19971;-88
2022/03/13 02:34:35;;;;;;;;;;;;;;;9.49;62.60;98864.09;5066058;28;19912;-86
2022/03/13 02:37:01;;;;;;;;;;;;;;;9.98;58.55;98862.56;5065664;28;19927;-86
2022/03/13 02:39:27;;;;;;;;;;;;;;;9.92;54.91;98851.63;5064437;28;19916;-87
2022/03/13 02:41:52;;;;;;;;;;;;;;;10.43;60.11;98859.44;5062989;28;19919;-88
2022/03/13 02:44:18;;;;;;;;;;;;;;;10.49;56.34;98848.09;5064933;28;19925;-85
2022/03/13 02:46:46;;;;;;;;;;;;;;;10.40;53.59;98846.66;5047435;28;19935;-85
2022/03/13 02:49:12;;;;;;;;;;;;;;;10.02;56.76;98848.72;5082192;28;19912;-86
2022/03/13 02:51:38;;;;;;;;;;;;;;;10.20;54.16;98849.88;5047982;28;20645;-85
2022/03/13 02:54:03;;;;;;;;;;;;;;;10.01;57.49;98844.50;5048518;28;19920;-85
2022/03/13 02:56:28;;;;;;;;;;;;;;;9.13;58.18;98848.03;5063303;28;20333;-89
2022/03/13 02:58:54;;;;;;;;;;;;;;;7.77;63.53;98850.63;5032122;28;20398;-84
2022/03/13 03:01:19;;;;;;;;;;;;;;;8.33;64.04;98850.97;5049531;28;20287;-86
2022/03/13 03:03:44;;;;;;;;;;;;;;;8.24;63.88;98846.06;5048055;28;20011;-87
2022/03/13 03:06:13;;;;;;;;;;;;;;;8.84;68.00;98847.09;5082327;28;19965;-86
2022/03/13 03:08:38;;;;;;;;;;;;;;;8.95;62.20;98844.25;5063242;28;20559;-88
2022/03/13 03:11:03;;;;;;;;;;;;;;;8.61;58.65;98841.75;5047797;28;20376;-86
2022/03/13 03:13:29;;;;;;;;;;;;;;;8.59;58.86;98852.06;5062749;28;19947;-85
2022/03/13 03:15:54;;;;;;;;;;;;;;;8.41;58.25;98847.41;5036629;28;19917;-85
2022/03/13 03:18:20;;;;;;;;;;;;;;;8.71;55.16;98835.47;5081015;28;20383;-87
2022/03/13 03:20:45;;;;;;;;;;;;;;;8.89;52.08;98834.97;5033546;28;19922;-90
2022/03/13 03:23:10;;;;;;;;;;;;;;;9.25;50.95;98828.84;5063277;28;19920;-87
2022/03/13 03:25:36;;;;;;;;;;;;;;;9.73;54.49;98833.38;5048758;28;19970;-85
2022/03/13 03:28:01;;;;;;;;;;;;;;;10.10;50.03;98827.06;5063046;28;19959;-87
2022/03/13 03:30:27;;;;;;;;;;;;;;;10.00;50.95;98829.94;5045880;28;20061;-86
2022/03/13 03:32:53;;;;;;;;;;;;;;;9.68;51.92;98836.09;5068081;28;20391;-88
2022/03/13 03:35:19;;;;;;;;;;;;;;;9.05;56.10;98840.50;5033575;28;19969;-86
2022/03/13 03:37:45;;;;;;;;;;;;;;;9.21;57.20;98836.66;5070143;28;20374;-85
2022/03/13 03:40:10;;;;;;;;;;;;;;;9.16;56.53;98830.78;5052360;28;20058;-86
2022/03/13 03:42:36;;;;;;;;;;;;;;;9.03;56.33;98832.00;5052263;28;19989;-86
2022/03/13 03:45:02;;;;;;;;;;;;;;;9.39;55.44;98830.09;5050372;28;19920;-87
2022/03/13 03:47:27;;;;;;;;;;;;;;;9.57;53.63;98825.28;5053180;28;19916;-87
2022/03/13 03:49:52;;;;;;;;;;;;;;;9.22;49.77;98822.06;5052828;28;19922;-85
2022/03/13 03:52:18;;;;;;;;;;;;;;;9.54;51.64;98831.38;5039266;28;20268;-88
2022/03/13 03:54:43;;;;;;;;;;;;;;;9.42;50.87;98829.19;5069945;28;19921;-86
2022/03/13 03:57:08;;;;;;;;;;;;;;;9.37;51.01;98825.91;5065891;28;19916;-88
2022/03/13 03:59:33;;;;;;;;;;;;;;;9.73;50.76;98828.22;5066349;28;20493;-88
2022/03/13 04:01:59;;;;;;;;;;;;;;;10.00;48.99;98822.22;5038092;28;19923;-88
2022/03/13 04:04:24;;;;;;;;;;;;;;;9.74;48.37;98819.63;5050765;28;19920;-87
2022/03/13 04:06:49;;;;;;;;;;;;;;;9.60;49.43;98815.78;5066179;28;19987;-87
2022/03/13 04:09:15;;;;;;;;;;;;;;;9.81;48.25;98814.25;5051165;28;20448;-88
2022/03/13 04:11:40;;;;;;;;;;;;;;;9.68;50.66;98817.25;5037371;28;20448;-86
2022/03/13 04:14:08;;;;;;;;;;;;;;;9.83;52.38;98819.34;5035231;28;20004;-86
2022/03/13 04:16:34;;;;;;;;;;;;;;;9.97;48.10;98811.19;5069067;28;19923;-88
2022/03/13 04:18:59;;;;;;;;;;;;;;;10.10;44.55;98811.63;5049473;28;19920;-87
2022/03/13 04:21:25;;;;;;;;;;;;;;;9.56;48.60;98811.59;5042678;28;20433;-87
2022/03/13 04:23:50;;;;;;;;;;;;;;;8.78;45.10;98817.31;5038379;28;19935;-87
2022/03/13 04:26:16;;;;;;;;;;;;;;;9.06;48.45;98813.97;5067036;28;19916;-89
2022/03/13 04:28:42;;;;;;;;;;;;;;;8.77;47.54;98815.63;5046287;28;20444;-86
2022/03/13 04:31:08;;;;;;;;;;;;;;;8.96;47.75;98815.97;5049826;28;19916;-85
2022/03/13 04:33:34;;;;;;;;;;;;;;;9.64;50.48;98809.63;5065062;28;20003;-88
2022/03/13 04:36:02;;;;;;;;;;;;;;;9.61;47.88;98809.72;5066605;28;19963;-86
2022/03/13 04:38:28;;;;;;;;;;;;;;;9.71;54.04;98815.41;5087328;28;19926;-86
2022/03/13 04:40:54;;;;;;;;;;;;;;;8.94;57.39;98814.28;5053592;28;20011;-89
2022/03/13 04:43:20;;;;;;;;;;;;;;;8.69;59.10;98816.69;5064722;28;20379;-85
2022/03/13 04:45:45;;;;;;;;;;;;;;;9.00;49.85;98801.28;5068017;28;19923;-88
2022/03/13 04:48:11;;;;;;;;;;;;;;;9.09;49.83;98795.88;5067249;28;19912;-86
2022/03/13 04:50:36;;;;;;;;;;;;;;;9.39;47.96;98795.84;5051507;28;19927;-85
2022/03/13 04:53:01;;;;;;;;;;;;;;;9.07;49.05;98807.09;5068236;28;20375;-86
2022/03/13 04:55:27;;;;;;;;;;;;;;;9.21;48.10;98802.38;5058377;28;19920;-88
2022/03/13 04:57:53;;;;;;;;;;;;;;;8.71;47.65;98805.53;5050051;28;19916;-86
2022/03/13 05:00:18;;;;;;;;;;;;;;;8.69;50.12;98804.72;5069479;28;19973;-87
2022/03/13 05:02:43;;;;;;;;;;;;;;;8.57;49.82;98802.47;5086856;28;20382;-86
2022/03/13 05:05:09;;;;;;;;;;;;;;;8.47;52.08;98806.19;5052129;28;19927;-87
2022/03/13 05:07:38;;;;;;;;;;;;;;;8.25;51.54;98795.59;5079286;28;19912;-87
2022/03/13 05:10:04;;;;;;;;;;;;;;;8.47;50.59;98796.75;5083240;22;19929;-60
2022/03/13 05:12:29;;;;;;;;;;;;;;;8.37;51.13;98803.84;5052297;28;20081;-60
2022/03/13 05:14:55;;;;;;;;;;;;;;;8.53;50.95;98806.00;5054855;28;19916;-61
2022/03/13 05:17:20;;;;;;;;;;;;;;;8.46;51.12;98804.50;5053493;28;19927;-60
2022/03/13 05:19:46;;;;;;;;;;;;;;;8.54;50.17;98797.44;5055240;28;20015;-60
2022/03/13 05:22:11;;;;;;;;;;;;;;;8.42;48.30;98795.22;5053619;28;19916;-60
2022/03/13 05:24:36;;;;;;;;;;;;;;;8.38;49.34;98797.81;5053199;28;19921;-60
2022/03/13 05:27:02;;;;;;;;;;;;;;;8.32;50.03;98800.53;5052710;28;21484;-60
2022/03/13 05:29:27;;;;;;;;;;;;;;;8.51;49.05;98794.97;5052279;28;20358;-58
2022/03/13 05:31:52;;;;;;;;;;;;;;;8.51;48.47;98793.22;5052532;28;19921;-61
2022/03/13 05:34:17;;;;;;;;;;;;;;;8.35;54.60;98800.47;5051593;28;19932;-61
2022/03/13 05:36:43;;;;;;;;;;;;;;;8.27;50.81;98797.25;5050805;28;19920;-61
2022/03/13 05:39:09;;;;;;;;;;;;;;;8.33;50.85;98791.97;5053702;28;19932;-61
2022/03/13 05:41:40;;;;;;;;;;;;;;;8.33;51.38;98789.41;5052716;28;19916;-61
2022/03/13 05:44:09;;;;;;;;;;;;;;;8.13;46.83;98783.94;5050288;28;19917;-61
2022/03/13 05:46:34;;;;;;;;;;;;;;;7.91;46.82;98793.88;5046854;28;19984;-60
2022/03/13 05:49:00;;;;;;;;;;;;;;;8.14;46.74;98799.31;5051959;28;19968;-60
2022/03/13 05:51:25;;;;;;;;;;;;;;;8.04;46.28;98799.56;5052053;28;19920;-59
2022/03/13 05:53:51;;;;;;;;;;;;;;;7.97;44.44;98797.13;5051871;28;19916;-60
2022/03/13 05:56:16;;;;;;;;;;;;;;;8.16;44.73;98800.09;5051077;28;19923;-60
2022/03/13 05:58:41;;;;;;;;;;;;;;;8.06;44.93;98796.06;5051966;28;20453;-60
2022/03/13 06:01:08;;;;;;;;;;;;;;;8.66;48.26;98803.97;5053057;28;20259;-60
2022/03/13 06:03:34;;;;;;;;;;;;;;;8.38;45.96;98805.50;5052173;28;20417;-61
2022/03/13 06:06:02;;;;;;;;;;;;;;;8.35;46.17;98808.16;5034493;28;20096;-61
2022/03/13 06:08:27;;;;;;;;;;;;;;;8.61;47.76;98803.25;5052329;28;19920;-59
2022/03/13 06:10:53;;;;;;;;;;;;;;;8.69;46.77;98809.88;5049977;28;20455;-61
2022/03/13 06:13:19;;;;;;;;;;;;;;;8.68;47.86;98820.16;5032446;28;19965;-61
2022/03/13 06:15:45;;;;;;;;;;;;;;;8.40;44.75;98804.63;5030677;28;19965;-60
2022/03/13 06:18:11;;;;;;;;;;;;;;;8.75;48.29;98811.41;5050801;28;19924;-60
2022/03/13 06:20:39;;;;;;;;;;;;;;;8.46;49.71;98823.31;5052063;28;20382;-61
2022/03/13 06:23:04;;;;;;;;;;;;;;;8.56;45.61;98821.34;5052254;28;19916;-62
2022/03/13 06:25:32;;;;;;;;;;;;;;;8.56;45.91;98826.47;5052759;28;20290;-61
2022/03/13 06:27:58;;;;;;;;;;;;;;;8.73;46.30;98824.28;5054355;28;19920;-61
2022/03/13 06:30:23;;;;;;;;;;;;;;;8.42;44.96;98815.75;5054394;28;19923;-61
2022/03/13 06:32:50;;;;;;;;;;;;;;;8.49;46.54;98823.22;5053060;28;20392;-60
2022/03/13 06:35:16;;;;;;;;;;;;;;;8.55;46.41;98817.94;5052013;28;20629;-59
2022/03/13 06:37:41;;;;;;;;;;;;;;;8.77;46.44;98825.88;5052599;28;19927;-60
2022/03/13 06:40:09;;;;;;;;;;;;;;;8.64;46.75;98832.22;5034580;28;19920;-60
2022/03/13 06:42:35;;;;;;;;;;;;;;;8.53;43.83;98817.13;5051738;28;19962;-60
2022/03/13 06:45:00;;;;;;;;;;;;;;;8.75;44.44;98827.66;5050905;28;20341;-60
2022/03/13 06:47:26;;;;;;;;;;;;;;;8.89;44.02;98823.84;5035463;28;19974;-60
2022/03/13 06:49:51;;;;;;;;;;;;;;;8.69;43.37;98827.84;5050602;28;20367;-61
2022/03/13 06:52:17;;;;;;;;;;;;;;;9.19;42.83;98820.44;5050252;28;20484;-61
2022/03/13 06:54:43;;;;;;;;;;;;;;;9.35;43.41;98827.66;5052040;28;20261;-59
2022/03/13 06:57:08;;;;;;;;;;;;;;;9.54;44.40;98831.38;5053509;28;19927;-60
2022/03/13 06:59:33;;;;;;;;;;;;;;;9.38;42.65;98822.44;5048916;28;19924;-60
2022/03/13 07:01:59;;;;;;;;;;;;;;;9.48;40.41;98811.00;5052759;28;20308;-61
2022/03/13 07:04:24;;;;;;;;;;;;;;;9.64;42.92;98819.06;5052453;28;19921;-60
2022/03/13 07:06:52;;;;;;;;;;;;;;;9.42;42.44;98808.63;5048906;28;19928;-61
2022/03/13 07:09:18;;;;;;;;;;;;;;;9.38;43.33;98817.31;5049445;28;20377;-60
2022/03/13 07:11:45;;;;;;;;;;;;;;;9.30;41.89;98798.69;5053004;28;19985;-61
2022/03/13 07:14:11;;;;;;;;;;;;;;;9.70;42.32;98800.06;5052562;28;20354;-60
2022/03/13 07:16:37;;;;;;;;;;;;;;;9.26;40.83;98797.09;5052507;28;19959;-60
2022/03/13 07:19:05;;;;;;;;;;;;;;;9.39;42.25;98801.00;5050427;28;20197;-60
2022/03/13 07:21:30;;;;;;;;;;;;;;;9.38;40.58;98801.91;5052756;28;20019;-60
2022/03/13 07:23:56;;;;;;;;;;;;;;;9.43;40.87;98800.00;5054793;28;20345;-60
2022/03/13 07:26:24;;;;;;;;;;;;;;;9.84;40.75;98797.88;5051612;28;20400;-60
2022/03/13 07:28:52;;;;;;;;;;;;;;;10.13;42.13;98806.38;5052418;28;19955;-61
2022/03/13 07:31:20;;;;;;;;;;;;;;;9.62;40.53;98798.56;5052710;28;19923;-61
2022/03/13 07:33:54;;;;;;;;;;;;;;;10.31;40.15;98795.50;5051514;28;20011;-61
2022/03/13 07:42:29;;;;;;;;;;;;;;;10.13;40.29;98781.50;5049243;28;19931;-61
2022/03/13 07:44:54;;;;;;;;;;;;;;;10.50;40.74;98787.97;5051704;28;19916;-61
2022/03/13 07:47:19;;;;;;;;;;;;;;;10.17;40.98;98789.94;5051746;28;20021;-60
2022/03/13 07:49:47;;;;;;;;;;;;;;;10.12;40.68;98790.09;5052286;28;20047;-61
2022/03/13 07:55:53;;;;;;;;;;;;;;;10.59;40.97;98794.53;5050339;28;19963;-60
2022/03/13 08:01:24;;;;;;;;;;;;;;;10.27;39.93;98791.31;5052781;28;19920;-60
2022/03/13 08:07:28;;;;;;;;;;;;;;;10.55;41.23;98798.94;5053030;28;19996;-60
2022/03/13 08:16:14;;;;;;;;;;;;;;;11.47;39.60;98800.72;5059512;28;19971;-61
2022/03/13 08:18:40;;;;;;;;;;;;;;;11.30;38.62;98813.41;5049148;28;20401;-61
2022/03/13 08:27:14;;;;;;;;;;;;;;;11.83;38.10;98822.53;5051594;28;20384;-60
2022/03/13 08:29:40;;;;;;;;;;;;;;;11.68;38.15;98809.34;5053789;28;19920;-61
2022/03/13 08:32:05;;;;;;;;;;;;;;;11.96;38.92;98821.16;5054153;28;19919;-60
2022/03/13 08:34:33;;;;;;;;;;;;;;;11.98;40.86;98821.94;5053361;28;20011;-61
2022/03/13 08:36:58;;;;;;;;;;;;;;;11.93;37.56;98808.41;5056538;28;20396;-61
2022/03/13 08:39:24;;;;;;;;;;;;;;;11.59;37.81;98809.69;5052590;28;19916;-60
2022/03/13 08:41:52;;;;;;;;;;;;;;;12.00;39.69;98820.16;5057390;28;19955;-61
2022/03/13 08:47:55;;;;;;;;;;;;;;;12.72;39.63;98811.09;5055704;28;20023;-61
2022/03/13 08:53:32;;;;;;;;;;;;;;;13.28;39.00;98817.25;5055633;28;19949;-61
2022/03/13 08:59:20;;;;;;;;;;;;;;;12.59;38.52;98822.84;5055262;28;19924;-61
2022/03/13 09:20:14;;;;;;;;;;;;;;;13.84;38.34;98821.47;5031431;28;19967;-60
2022/03/13 09:22:40;;;;;;;;;;;;;;;13.67;38.10;98819.72;5026111;28;19920;-61
2022/03/13 09:46:52;;;;;;;;;;;;;;;15.42;37.51;98825.53;5024099;28;20438;-61
2022/03/13 09:49:20;;;;;;;;;;;;;;;15.63;39.83;98828.72;5026511;28;19921;-59
2022/03/13 10:20:05;;;;;;;;;;;;;;;16.69;39.12;98810.47;5003182;28;19928;-59
2022/03/13 10:22:58;;;;;;;;;;;;;;;16.38;36.92;98803.66;5005677;28;19925;-60
2022/03/13 10:25:30;;;;;;;;;;;;;;;16.05;38.85;98814.25;5008337;28;19984;-59
2022/03/13 10:41:20;;;;;;;;;;;;;;;16.10;40.86;98791.44;5031929;23;19929;-61
2022/03/13 10:43:55;;;;;;;;;;;;;;;16.14;40.00;98797.28;5016584;28;19992;-61
2022/03/13 10:46:24;;;;;;;;;;;;;;;17.03;40.14;98795.44;5024769;28;19921;-61
2022/03/13 10:48:49;;;;;;;;;;;;;;;16.45;41.81;98806.75;5022566;28;20398;-60
2022/03/13 10:51:15;;;;;;;;;;;;;;;17.12;41.08;98802.66;5023204;28;19917;-60
2022/03/13 10:53:40;;;;;;;;;;;;;;;17.63;39.53;98801.22;5020024;28;19922;-60
2022/03/13 10:56:10;;;;;;;;;;;;;;;17.26;39.33;98808.78;5015122;28;19922;-60
2022/03/13 10:58:40;;;;;;;;;;;;;;;17.67;38.71;98808.75;5024888;28;20272;-60
2022/03/13 11:01:09;;;;;;;;;;;;;;;17.28;41.92;98804.31;5025016;28;19966;-58
2022/03/13 11:03:35;;;;;;;;;;;;;;;16.65;39.89;98795.13;5026026;28;20023;-60
2022/03/13 11:06:01;;;;;;;;;;;;;;;17.51;40.22;98795.88;5024630;28;19965;-60
2022/03/13 11:08:28;;;;;;;;;;;;;;;16.95;40.81;98794.25;5029550;28;19936;-60
2022/03/13 11:10:53;;;;;;;;;;;;;;;17.08;42.99;98789.94;5025606;28;20004;-60
2022/03/13 11:13:20;;;;;;;;;;;;;;;17.39;41.69;98786.25;5022642;28;20379;-60
2022/03/13 11:15:46;;;;;;;;;;;;;;;17.22;41.80;98794.28;5021707;28;19959;-59
2022/03/13 11:18:11;;;;;;;;;;;;;;;17.72;40.98;98795.44;5023426;28;20007;-60
2022/03/13 11:20:39;;;;;;;;;;;;;;;17.66;38.46;98790.63;5021750;28;20052;-59
2022/03/13 11:23:08;;;;;;;;;;;;;;;18.70;40.15;98791.56;5017202;28;20012;-60
2022/03/13 11:25:33;;;;;;;;;;;;;;;18.50;39.99;98794.69;5003604;28;19924;-60
2022/03/13 11:27:59;;;;;;;;;;;;;;;18.34;39.19;98782.69;5023411;28;20371;-60
2022/03/13 11:30:39;;;;;;;;;;;;;;;19.10;38.94;98780.97;5020671;28;19936;-60
2022/03/13 11:35:39;;;;;;;;;;;;;;;19.02;38.97;98775.44;5028091;28;19933;-61
2022/03/13 11:38:07;;;;;;;;;;;;;;;18.23;40.91;98785.16;5031361;28;19920;-62
2022/03/13 11:40:34;;;;;;;;;;;;;;;17.56;44.26;98791.22;5022837;28;19921;-62
2022/03/13 11:43:08;;;;;;;;;;;;;;;18.42;44.02;98789.16;5024516;28;20378;-62
2022/03/13 11:45:35;;;;;;;;;;;;;;;17.50;43.09;98786.41;5028502;28;19970;-62
2022/03/13 11:48:19;;;;;;;;;;;;;;;18.07;44.58;98784.53;5031505;28;20486;-62
2022/03/13 11:50:48;;;;;;;;;;;;;;;19.12;46.28;98786.09;5029167;28;19913;-62
2022/03/13 11:53:23;;;;;;;;;;;;;;;19.30;43.98;98776.94;5029897;28;20378;-61
2022/03/13 11:55:57;;;;;;;;;;;;;;;19.05;43.50;98783.06;5030104;28;20430;-62
2022/03/13 11:58:42;;;;;;;;;;;;;;;19.76;44.13;98783.25;5020441;28;19921;-62
2022/03/13 12:01:08;;;;;;;;;;;;;;;19.92;42.25;98775.13;5035125;28;19996;-61
2022/03/13 12:03:33;;;;;;;;;;;;;;;19.77;46.22;98780.50;5028239;28;20382;-61
2022/03/13 12:05:59;;;;;;;;;;;;;;;19.41;43.10;98776.19;5031993;28;19955;-63
2022/03/13 12:08:26;;;;;;;;;;;;;;;19.82;45.16;98772.38;5031067;28;19917;-62
2022/03/13 12:10:52;;;;;;;;;;;;;;;19.58;42.80;98769.72;5014148;28;19940;-63
2022/03/13 12:13:20;;;;;;;;;;;;;;;19.93;44.55;98764.53;5022301;28;20501;-63
2022/03/13 12:15:45;;;;;;;;;;;;;;;19.55;42.64;98765.56;5035673;28;19913;-60
2022/03/13 12:18:13;;;;;;;;;;;;;;;19.64;44.06;98770.13;5034440;28;20000;-60
2022/03/13 12:20:38;;;;;;;;;;;;;;;19.70;42.40;98752.34;5022499;28;19913;-59
2022/03/13 12:23:05;;;;;;;;;;;;;;;19.88;44.13;98750.97;5035574;28;20314;-61
2022/03/13 12:25:30;;;;;;;;;;;;;;;20.40;43.79;98747.03;5034283;28;19913;-60
2022/03/13 12:27:56;;;;;;;;;;;;;;;19.21;41.96;98748.88;5033029;28;19932;-60
2022/03/13 12:30:23;;;;;;;;;;;;;;;20.44;45.91;98748.47;5031647;28;19921;-61
2022/03/13 12:32:48;;;;;;;;;;;;;;;20.70;43.67;98742.22;5024346;28;20256;-61
2022/03/13 12:35:13;;;;;;;;;;;;;;;20.77;42.72;98744.22;5023217;28;20015;-61
2022/03/13 12:37:39;;;;;;;;;;;;;;;19.94;48.32;98750.53;5033336;28;20375;-62
2022/03/13 12:40:06;;;;;;;;;;;;;;;20.97;43.26;98739.22;5028487;28;19913;-62
2022/03/13 12:42:34;;;;;;;;;;;;;;;20.44;42.24;98731.97;5031082;28;20175;-62
2022/03/13 12:45:06;;;;;;;;;;;;;;;18.73;43.78;98733.94;5020729;28;19914;-61
2022/03/13 12:47:37;;;;;;;;;;;;;;;20.06;45.20;98733.09;5031168;28;20359;-62
2022/03/13 12:50:03;;;;;;;;;;;;;;;19.49;42.27;98732.03;5039381;28;19917;-61
2022/03/13 12:52:29;;;;;;;;;;;;;;;20.14;43.68;98729.88;5032464;28;20314;-56
2022/03/13 12:54:57;;;;;;;;;;;;;;;20.48;43.40;98728.13;5016235;28;20338;-60
2022/03/13 12:57:22;;;;;;;;;;;;;;;20.21;42.39;98724.09;5033102;28;19917;-62
2022/03/13 12:59:49;;;;;;;;;;;;;;;21.11;41.98;98720.63;5031497;28;20363;-61
2022/03/13 13:02:21;;;;;;;;;;;;;;;19.31;41.26;98720.31;5005481;28;20422;-62
2022/03/13 13:04:47;;;;;;;;;;;;;;;20.09;43.90;98713.72;5031812;28;20347;-62
2022/03/13 13:07:13;;;;;;;;;;;;;;;21.21;45.67;98724.19;5028501;28;20385;-62
2022/03/13 13:09:40;;;;;;;;;;;;;;;22.08;45.77;98718.81;5031323;28;20003;-62
2022/03/13 13:12:09;;;;;;;;;;;;;;;21.72;38.86;98709.59;5047586;28;19916;-62
2022/03/13 13:14:35;;;;;;;;;;;;;;;21.84;39.84;98703.31;5031847;28;19913;-62
2022/03/13 13:17:04;;;;;;;;;;;;;;;21.39;37.48;98702.69;5035453;28;19935;-61
2022/03/13 13:19:30;;;;;;;;;;;;;;;21.42;38.71;98708.53;5019014;28;20370;-63
2022/03/13 13:22:00;;;;;;;;;;;;;;;21.23;39.22;98700.47;5022408;28;19917;-62
2022/03/13 13:24:27;;;;;;;;;;;;;;;21.10;40.84;98698.03;5031089;28;20486;-62
2022/03/13 13:26:53;;;;;;;;;;;;;;;21.36;40.69;98697.69;5043259;28;20302;-62
2022/03/13 13:29:37;;;;;;;;;;;;;;;21.43;43.06;98698.88;5032579;28;19917;-62
2022/03/13 13:32:19;;;;;;;;;;;;;;;21.72;41.92;98693.88;5032550;28;19931;-62
2022/03/13 13:35:00;;;;;;;;;;;;;;;19.73;43.07;98694.63;5026156;28;19921;-62
2022/03/13 13:37:25;;;;;;;;;;;;;;;20.98;39.66;98688.50;5032722;28;20412;-61
2022/03/13 13:40:00;;;;;;;;;;;;;;;21.93;38.97;98696.50;5016451;28;19913;-61
2022/03/13 13:42:25;;;;;;;;;;;;;;;21.65;44.90;98696.16;5032420;28;20018;-61
2022/03/13 13:44:51;;;;;;;;;;;;;;;20.98;41.29;98688.50;5031088;28;19979;-62
2022/03/13 13:47:39;;;;;;;;;;;;;;;21.30;43.10;98684.16;5029767;28;19913;-62
2022/03/13 13:50:12;;;;;;;;;;;;;;;21.15;44.53;98682.75;5032345;28;19914;-62
2022/03/13 13:52:40;;;;;;;;;;;;;;;21.40;41.26;98678.16;5032440;28;19924;-61
2022/03/13 13:55:18;;;;;;;;;;;;;;;21.44;43.23;98674.34;5032192;28;19917;-62
2022/03/13 13:57:43;;;;;;;;;;;;;;;21.43;47.25;98678.75;5031132;28;19917;-62
2022/03/13 14:00:09;;;;;;;;;;;;;;;21.38;43.14;98677.44;5029495;28;19924;-62
2022/03/13 14:02:35;;;;;;;;;;;;;;;21.15;43.24;98674.91;5005757;28;19973;-61
2022/03/13 14:05:00;;;;;;;;;;;;;;;20.45;39.39;98671.66;5026446;28;20001;-62
2022/03/13 14:07:26;;;;;;;;;;;;;;;21.39;42.88;98676.47;5030094;28;20011;-61
2022/03/13 14:09:58;;;;;;;;;;;;;;;21.74;39.97;98670.16;5021268;28;20348;-62
2022/03/13 14:12:24;;;;;;;;;;;;;;;22.16;41.56;98670.13;5014798;28;19917;-62
2022/03/13 14:14:49;;;;;;;;;;;;;;;21.69;41.21;98674.00;5031304;28;20008;-62
2022/03/13 14:17:14;;;;;;;;;;;;;;;22.33;38.46;98662.50;5050519;28;19919;-62
2022/03/13 14:19:40;;;;;;;;;;;;;;;21.84;38.89;98671.03;5048594;28;19947;-60
2022/03/13 14:22:06;;;;;;;;;;;;;;;21.34;39.52;98676.03;5016541;28;19935;-61
2022/03/13 14:24:34;;;;;;;;;;;;;;;21.93;51.60;98673.72;5049794;28;20004;-61
2022/03/13 14:27:04;;;;;;;;;;;;;;;22.52;41.41;98661.72;5048747;28;19913;-61
2022/03/13 14:29:29;;;;;;;;;;;;;;;21.08;46.12;98668.50;5016132;28;20466;-62
2022/03/13 14:31:55;;;;;;;;;;;;;;;21.02;38.70;98663.75;5050685;28;20007;-61
2022/03/13 14:34:20;;;;;;;;;;;;;;;21.34;41.96;98662.94;5050460;28;20378;-61
2022/03/13 14:36:46;;;;;;;;;;;;;;;21.85;49.01;98677.94;5050946;28;20282;-61
2022/03/13 14:39:11;;;;;;;;;;;;;;;22.24;44.60;98665.91;5050380;28;19920;-61
2022/03/13 14:41:39;;;;;;;;;;;;;;;21.16;43.12;98676.56;5034725;28;19913;-61
2022/03/13 14:44:10;;;;;;;;;;;;;;;21.82;46.54;98678.19;5029756;28;20023;-61
2022/03/13 14:46:35;;;;;;;;;;;;;;;20.59;42.40;98680.25;5031326;28;19917;-61
2022/03/13 14:49:00;;;;;;;;;;;;;;;20.93;41.72;98677.59;5031097;28;19913;-61
2022/03/13 14:51:26;;;;;;;;;;;;;;;21.75;47.52;98687.53;5030738;28;19917;-60
2022/03/13 14:53:51;;;;;;;;;;;;;;;21.38;43.98;98680.06;5031092;28;19924;-61